Time,TemperatureF,DewpointF,PressureIn,WindDirection,WindDirectionDegrees,WindSpeedMPH,WindSpeedGustMPH,Humidity,HourlyPrecipIn,Conditions,Clouds,dailyrainin,SoftwareType,DateUTC
2013-07-08 15:00:00,96.1,73.3,29.93,SE,135,4.9,4.9,48,0.00,,,0.00,WUHU216HW,2013-07-08 20:00:00,
2013-07-08 15:05:00,96.3,73.5,29.92,East,90,6.3,6.3,48,0.00,,,0.00,WUHU216HW,2013-07-08 20:05:00,
2013-07-08 15:10:00,95.6,72.1,29.92,South,180,6.3,9.2,47,0.00,,,0.00,WUHU216HW,2013-07-08 20:10:00,
2013-07-08 15:16:00,95.4,72.6,29.93,SE,135,4.3,9.2,48,0.00,,,0.00,WUHU216HW,2013-07-08 20:16:00,
2013-07-08 15:21:00,95.4,71.9,29.93,SE,135,2.7,8.3,47,0.00,,,0.00,WUHU216HW,2013-07-08 20:21:00,
2013-07-08 15:26:00,95.8,72.3,29.93,SSE,158,5.8,10.3,47,0.00,,,0.00,WUHU216HW,2013-07-08 20:26:00,
2013-07-08 15:31:00,95.9,72.5,29.93,SE,135,3.4,10.7,47,0.00,,,0.00,WUHU216HW,2013-07-08 20:31:00,
2013-07-08 15:37:00,96.1,72.6,29.92,SSE,158,0.2,9.4,47,0.00,,,0.00,WUHU216HW,2013-07-08 20:37:00,
2013-07-08 15:43:00,96.7,73.1,29.92,ESE,113,3.4,6.5,47,0.00,,,0.00,WUHU216HW,2013-07-08 20:43:00,
2013-07-08 15:48:00,96.8,71.9,29.92,ENE,68,7.6,12.1,45,0.00,,,0.00,WUHU216HW,2013-07-08 20:48:00,
2013-07-08 15:53:00,96.5,71.6,29.92,SSE,158,3.6,12.1,45,0.00,,,0.00,WUHU216HW,2013-07-08 20:53:00,
2013-07-08 15:59:00,96.8,72.5,29.92,SE,135,9.2,9.2,46,0.00,,,0.00,WUHU216HW,2013-07-08 20:59:00,
2013-07-08 16:04:00,97.4,73.1,29.92,ESE,113,8.7,9.2,46,0.00,,,0.00,WUHU216HW,2013-07-08 21:04:00,
2013-07-08 16:09:00,97.0,72.7,29.92,SSE,158,6.3,11.4,46,0.00,,,0.00,WUHU216HW,2013-07-08 21:09:00,
2013-07-08 16:15:00,96.8,72.5,29.92,SSE,158,4.5,11.4,46,0.00,,,0.00,WUHU216HW,2013-07-08 21:15:00,
2013-07-08 16:20:00,96.3,72.1,29.91,SSE,158,5.4,9.8,46,0.00,,,0.00,WUHU216HW,2013-07-08 21:20:00,
2013-07-08 16:25:00,95.8,71.7,29.91,East,90,7.4,9.8,46,0.00,,,0.00,WUHU216HW,2013-07-08 21:25:00,
2013-07-08 16:31:00,95.9,72.5,29.91,WSW,248,1.8,9.2,47,0.00,,,0.00,WUHU216HW,2013-07-08 21:31:00,
2013-07-08 16:36:00,96.3,72.7,29.91,SSE,158,1.6,9.2,47,0.00,,,0.00,WUHU216HW,2013-07-08 21:36:00,
2013-07-08 16:41:00,96.7,73.1,29.91,East,90,6.3,7.4,47,0.00,,,0.00,WUHU216HW,2013-07-08 21:41:00,
2013-07-08 16:47:00,95.9,72.5,29.91,ESE,113,7.6,8.5,47,0.00,,,0.00,WUHU216HW,2013-07-08 21:47:00,
2013-07-08 16:52:00,95.8,72.9,29.91,SE,135,8.3,8.5,48,0.00,,,0.00,WUHU216HW,2013-07-08 21:52:00,
2013-07-08 16:57:00,95.8,72.9,29.91,SW,225,4.5,9.6,48,0.00,,,0.00,WUHU216HW,2013-07-08 21:57:00,
2013-07-08 17:03:00,95.6,72.8,29.91,ESE,113,5.1,9.8,48,0.00,,,0.00,WUHU216HW,2013-07-08 22:03:00,
2013-07-08 17:08:00,95.6,72.8,29.91,SE,135,3.8,9.8,48,0.00,,,0.00,WUHU216HW,2013-07-08 22:08:00,
2013-07-08 17:13:00,95.6,72.8,29.91,SSE,158,3.1,7.8,48,0.00,,,0.00,WUHU216HW,2013-07-08 22:13:00,
2013-07-08 17:19:00,95.6,73.4,29.91,SE,135,3.4,8.5,49,0.00,,,0.00,WUHU216HW,2013-07-08 22:19:00,
2013-07-08 17:24:00,95.4,72.6,29.90,East,90,2.5,8.5,48,0.00,,,0.00,WUHU216HW,2013-07-08 22:24:00,
2013-07-08 17:30:00,95.4,73.3,29.91,East,90,6.5,9.2,49,0.00,,,0.00,WUHU216HW,2013-07-08 22:30:00,
2013-07-08 17:35:00,95.0,73.0,29.91,SSE,158,3.4,9.2,49,0.00,,,0.00,WUHU216HW,2013-07-08 22:35:00,
2013-07-08 17:41:00,95.0,73.0,29.90,ESE,113,3.8,8.5,49,0.00,,,0.00,WUHU216HW,2013-07-08 22:41:00,
2013-07-08 17:46:00,95.2,72.5,29.90,SE,135,8.9,9.6,48,0.00,,,0.00,WUHU216HW,2013-07-08 22:46:00,
2013-07-08 17:51:00,95.0,72.3,29.90,ESE,113,6.0,9.6,48,0.00,,,0.00,WUHU216HW,2013-07-08 22:51:00,
2013-07-08 17:56:00,95.2,72.5,29.90,ESE,113,8.9,8.9,48,0.00,,,0.00,WUHU216HW,2013-07-08 22:56:00,
2013-07-08 18:01:00,95.0,73.0,29.90,ENE,68,3.4,8.9,49,0.00,,,0.00,WUHU216HW,2013-07-08 23:01:00,
2013-07-08 18:06:00,94.7,72.6,29.90,SE,135,4.3,8.9,49,0.00,,,0.00,WUHU216HW,2013-07-08 23:06:00,
2013-07-08 18:11:00,94.3,72.3,29.90,East,90,7.6,10.7,49,0.00,,,0.00,WUHU216HW,2013-07-08 23:11:00,
2013-07-08 18:17:00,94.3,72.9,29.90,ESE,113,4.3,10.7,50,0.00,,,0.00,WUHU216HW,2013-07-08 23:17:00,
2013-07-08 18:22:00,94.0,71.9,29.90,SSE,158,6.0,9.6,49,0.00,,,0.00,WUHU216HW,2013-07-08 23:22:00,
2013-07-08 18:27:00,94.0,72.5,29.89,East,90,10.1,10.1,50,0.00,,,0.00,WUHU216HW,2013-07-08 23:27:00,
2013-07-08 18:32:00,94.0,72.5,29.90,ENE,68,8.7,10.1,50,0.00,,,0.00,WUHU216HW,2013-07-08 23:32:00,
2013-07-08 18:37:00,94.0,72.5,29.89,SE,135,2.5,10.1,50,0.00,,,0.00,WUHU216HW,2013-07-08 23:37:00,
2013-07-08 18:42:00,93.8,72.4,29.89,ESE,113,8.1,9.4,50,0.00,,,0.00,WUHU216HW,2013-07-08 23:42:00,
2013-07-08 18:48:00,93.8,72.4,29.89,ESE,113,5.4,8.1,50,0.00,,,0.00,WUHU216HW,2013-07-08 23:48:00,
2013-07-08 18:53:00,93.8,72.4,29.89,ESE,113,6.5,7.4,50,0.00,,,0.00,WUHU216HW,2013-07-08 23:53:00,
2013-07-08 18:58:00,93.8,72.4,29.89,SSE,158,3.8,7.2,50,0.00,,,0.00,WUHU216HW,2013-07-08 23:58:00,
2013-07-08 19:03:00,93.4,72.0,29.89,SE,135,4.5,10.7,50,0.00,,,0.00,WUHU216HW,2013-07-09 00:03:00,
2013-07-08 19:09:00,93.2,71.8,29.89,SW,225,5.4,10.7,50,0.00,,,0.00,WUHU216HW,2013-07-09 00:09:00,
2013-07-08 19:14:00,93.1,71.6,29.89,SSE,158,6.7,9.2,50,0.00,,,0.00,WUHU216HW,2013-07-09 00:14:00,
2013-07-08 19:19:00,93.1,71.6,29.89,East,90,3.4,7.4,50,0.00,,,0.00,WUHU216HW,2013-07-09 00:19:00,
2013-07-08 19:25:00,93.1,71.6,29.89,ENE,68,6.9,7.6,50,0.00,,,0.00,WUHU216HW,2013-07-09 00:25:00,
2013-07-08 19:30:00,92.9,71.5,29.89,SE,135,7.6,8.5,50,0.00,,,0.00,WUHU216HW,2013-07-09 00:30:00,
2013-07-08 19:35:00,92.9,71.5,29.89,SE,135,3.4,8.5,50,0.00,,,0.00,WUHU216HW,2013-07-09 00:35:00,
2013-07-08 19:40:00,92.7,71.4,29.89,SE,135,3.6,7.6,50,0.00,,,0.00,WUHU216HW,2013-07-09 00:40:00,
2013-07-08 19:45:00,92.5,71.2,29.90,SW,225,4.9,7.4,50,0.00,,,0.00,WUHU216HW,2013-07-09 00:45:00,
2013-07-08 19:51:00,92.2,71.4,29.89,East,90,3.4,7.4,51,0.00,,,0.00,WUHU216HW,2013-07-09 00:51:00,
2013-07-08 19:56:00,92.0,71.2,29.90,SSE,158,5.4,8.5,51,0.00,,,0.00,WUHU216HW,2013-07-09 00:56:00,
2013-07-08 20:01:00,91.8,71.1,29.90,East,90,3.1,8.5,51,0.00,,,0.00,WUHU216HW,2013-07-09 01:01:00,
2013-07-08 20:06:00,91.6,70.9,29.90,ESE,113,4.9,6.3,51,0.00,,,0.00,WUHU216HW,2013-07-09 01:06:00,
2013-07-08 20:12:00,91.4,70.7,29.90,SE,135,3.8,6.3,51,0.00,,,0.00,WUHU216HW,2013-07-09 01:12:00,
2013-07-08 20:17:00,91.3,71.1,29.90,SE,135,2.7,6.0,52,0.00,,,0.00,WUHU216HW,2013-07-09 01:17:00,
2013-07-08 20:22:00,91.1,70.9,29.90,ENE,68,2.9,5.1,52,0.00,,,0.00,WUHU216HW,2013-07-09 01:22:00,
2013-07-08 20:27:00,90.7,71.2,29.90,ESE,113,2.5,5.1,53,0.00,,,0.00,WUHU216HW,2013-07-09 01:27:00,
2013-07-08 20:33:00,90.5,71.0,29.90,East,90,2.5,4.3,53,0.00,,,0.00,WUHU216HW,2013-07-09 01:33:00,
2013-07-08 20:38:00,90.5,71.0,29.90,SE,135,2.5,4.0,53,0.00,,,0.00,WUHU216HW,2013-07-09 01:38:00,
2013-07-08 20:44:00,90.4,70.8,29.90,SE,135,0.7,3.8,53,0.00,,,0.00,WUHU216HW,2013-07-09 01:44:00,
2013-07-08 20:49:00,90.2,71.2,29.90,ESE,113,3.4,4.7,54,0.00,,,0.00,WUHU216HW,2013-07-09 01:49:00,
2013-07-08 20:54:00,89.8,70.9,29.90,ESE,113,1.8,4.7,54,0.00,,,0.00,WUHU216HW,2013-07-09 01:54:00,
2013-07-08 20:59:00,89.5,71.1,29.90,ESE,113,2.2,3.4,55,0.00,,,0.00,WUHU216HW,2013-07-09 01:59:00,
2013-07-08 21:04:00,89.3,70.9,29.91,ESE,113,1.1,4.0,55,0.00,,,0.00,WUHU216HW,2013-07-09 02:04:00,
2013-07-08 21:05:00,89.1,70.8,29.91,ESE,113,2.0,4.0,55,0.00,,,0.00,WUHU216HW,2013-07-09 02:05:00,